Arctic Taglu — CY8968 — position and weather

sailwx.info

Track history (hours):
 
Tides and Currents Weather Stations Pressure Air Temp Water Temp Dewpoint Dewpoint Depression Visibility Wind Speed Wind Dir Waves Ship Positions

Arctic Taglu

Last reported at 2016-Jun-25 06:33 UTC. Time now 2016-Jun-25 07:03 UTC.
Position N 49°07' W 123°08'.

Length 33 m; draft 6 m.

Type: Tug. MMSI: 316003483.

Date/timePositionNaut miles runAvg speedWind from/ knotsBaromVisibWave heightAir tempDewpointWater temp
2016-Jun-25 06:33N 49°07' W 123°08'4 4.3
2016-Jun-25 05:33N 49°09' W 123°02'0 0.0
2016-Jun-25 04:33N 49°09' W 123°02'0 0.0
2016-Jun-25 03:33N 49°09' W 123°02'0 0.0
2016-Jun-25 02:33N 49°09' W 123°02'0 0.0
2016-Jun-25 01:33N 49°09' W 123°02'0 0.0
2016-Jun-25 00:33N 49°09' W 123°02'0 0.0
2016-Jun-24 23:33N 49°09' W 123°02'0 0.0
2016-Jun-24 22:33N 49°09' W 123°02'0 0.0
2016-Jun-24 21:33N 49°09' W 123°02'0 0.0
2016-Jun-24 20:33N 49°09' W 123°02'0 0.0
2016-Jun-24 19:33N 49°09' W 123°02'0 0.0
2016-Jun-24 18:33N 49°09' W 123°02'0 0.5
2016-Jun-24 17:33N 49°08' W 123°03'2 1.5
2016-Jun-24 16:33N 49°07' W 123°04'6 5.6
2016-Jun-24 15:33N 49°08' W 123°13'8 7.5
2016-Jun-24 14:33N 49°02' W 123°20'1010.1
2016-Jun-24 13:33N 48°52' W 123°18'9 8.7
2016-Jun-24 12:31N 48°44' W 123°25'2 2.5
2016-Jun-24 11:33N 48°41' W 123°24'0 0.0
2016-Jun-24 10:33N 48°41' W 123°24'4 4.2
2016-Jun-24 09:33N 48°45' W 123°21'8 7.7
2016-Jun-24 08:33N 48°52' W 123°18'1010.4
2016-Jun-24 07:33N 49°03' W 123°20'8 7.9
2016-Jun-24 06:33N 49°07' W 123°09'5 2.4
2016-Jun-24 04:33N 49°09' W 123°02'0 0.0
2016-Jun-24 03:33N 49°09' W 123°02'0 0.0
2016-Jun-24 02:33N 49°09' W 123°02'0 0.0
2016-Jun-24 01:33N 49°09' W 123°02'0 0.0
2016-Jun-24 00:33N 49°09' W 123°02'0 0.0
2016-Jun-23 23:33N 49°09' W 123°02'0 0.0
2016-Jun-23 22:33N 49°09' W 123°02'0 0.0
2016-Jun-23 21:33N 49°09' W 123°02'0 0.0
2016-Jun-23 20:33N 49°09' W 123°02'0 0.0
2016-Jun-23 19:33N 49°09' W 123°02'0 0.0
2016-Jun-23 18:33N 49°09' W 123°02'0 0.0
2016-Jun-23 17:33N 49°09' W 123°02'1 0.8
2016-Jun-23 16:33N 49°08' W 123°03'5 5.1
2016-Jun-23 15:33N 49°07' W 123°11'7 6.7
2016-Jun-23 14:33N 49°04' W 123°20'1010.4
2016-Jun-23 13:33N 48°54' W 123°18'9 8.5
2016-Jun-23 12:32N 48°45' W 123°22'4 2.2
2016-Jun-23 10:33N 48°41' W 123°24'3 3.0
2016-Jun-23 09:33N 48°44' W 123°23'8 7.9
2016-Jun-23 08:33N 48°51' W 123°19'10 9.9
2016-Jun-23 07:33N 49°01' W 123°20'14 7.0
2016-Jun-23 05:33N 49°09' W 123°02'1 0.9
2016-Jun-23 04:33N 49°08' W 123°03'9 9.1
2016-Jun-23 03:33N 49°07' W 123°17'9 8.9
2016-Jun-23 02:33N 48°58' W 123°19'8 8.1
2016-Jun-23 01:31N 48°49' W 123°21'8 8.7
2016-Jun-23 00:33N 48°41' W 123°24'0 0.1
2016-Jun-22 23:33N 48°41' W 123°24'4 3.9
2016-Jun-22 22:33N 48°44' W 123°21'7 7.1
2016-Jun-22 21:33N 48°52' W 123°19'8 8.4
2016-Jun-22 20:33N 48°60' W 123°20'9 9.2
2016-Jun-22 19:33N 49°07' W 123°12'7 6.6
2016-Jun-22 18:33N 49°09' W 123°02'0 0.0
2016-Jun-22 17:33N 49°09' W 123°02'2 1.7
2016-Jun-22 16:33N 49°08' W 123°04'6 5.9
2016-Jun-22 15:33N 49°08' W 123°13'7 7.4
2016-Jun-22 14:33N 49°02' W 123°20'10 9.6
2016-Jun-22 13:33N 48°52' W 123°18'8 8.0
2016-Jun-22 12:33N 48°45' W 123°23'4 3.7
2016-Jun-22 11:33N 48°41' W 123°24'0 0.0
2016-Jun-22 10:31N 48°41' W 123°24'6 5.7
2016-Jun-22 09:33N 48°46' W 123°21'9 8.5
2016-Jun-22 08:33N 48°55' W 123°18'1010.0
2016-Jun-22 07:33N 49°04' W 123°21'7 7.4
2016-Jun-22 06:34N 49°07' W 123°10'6 5.5
2016-Jun-22 05:33N 49°09' W 123°02'0 0.0
2016-Jun-22 04:33N 49°09' W 123°02'0 0.0
2016-Jun-22 03:33N 49°09' W 123°02'0 0.0
2016-Jun-22 02:33N 49°09' W 123°02'0 0.0
2016-Jun-22 01:33N 49°09' W 123°02'0 0.0
2016-Jun-22 00:33N 49°09' W 123°02'0 0.0
2016-Jun-21 23:33N 49°09' W 123°02'0 0.0
2016-Jun-21 22:33N 49°09' W 123°02'0 0.0
2016-Jun-21 21:33N 49°09' W 123°02'0 0.0
2016-Jun-21 20:33N 49°09' W 123°02'0 0.0
2016-Jun-21 19:33N 49°09' W 123°02'0 0.0
2016-Jun-21 18:33N 49°09' W 123°02'0 0.0
2016-Jun-21 17:33N 49°09' W 123°02'3 3.5
2016-Jun-21 16:34N 49°07' W 123°06'6 5.9
2016-Jun-21 15:34N 49°07' W 123°15'7 6.8
2016-Jun-21 14:34N 49°01' W 123°19'9 9.0
2016-Jun-21 13:34N 48°52' W 123°19'7 7.2
2016-Jun-21 12:33N 48°45' W 123°22'4 2.9
2016-Jun-21 11:10N 48°41' W 123°24'0 0.0
2016-Jun-21 10:22N 48°41' W 123°24'5 5.7
2016-Jun-21 09:33N 48°45' W 123°21'8 8.2
2016-Jun-21 08:33N 48°53' W 123°18'10 9.9
2016-Jun-21 07:33N 49°03' W 123°20'9 8.8
2016-Jun-21 06:33N 49°07' W 123°07'4 1.8
2016-Jun-21 04:32N 49°08' W 123°03'0 0.0
2016-Jun-21 03:32N 49°08' W 123°03'0 0.0
2016-Jun-21 02:32N 49°08' W 123°03'  
2016-Jun-18 20:25N 49°08' W 123°03'0 0.1
2016-Jun-18 19:33N 49°08' W 123°03'0 0.4
2016-Jun-18 18:32N 49°09' W 123°02'5 5.0
2016-Jun-18 17:34N 49°07' W 123°09'5 5.2
2016-Jun-18 16:33N 49°07' W 123°17'6 6.2
2016-Jun-18 15:33N 49°01' W 123°20'8 8.1
2016-Jun-18 14:33N 48°53' W 123°18'6 6.2
2016-Jun-18 13:33N 48°47' W 123°21'6 2.7
2016-Jun-18 11:16N 48°41' W 123°24'3 2.0
2016-Jun-18 09:33N 48°45' W 123°23'8 8.1
2016-Jun-18 08:33N 48°52' W 123°18'9 9.3
2016-Jun-18 07:33N 49°01' W 123°20'8 8.1
2016-Jun-18 06:33N 49°07' W 123°11'6 5.7
2016-Jun-18 05:32N 49°09' W 123°02'0 0.0
2016-Jun-18 04:29N 49°09' W 123°02'0 0.0
2016-Jun-18 03:32N 49°09' W 123°02'0 0.0
2016-Jun-18 02:32N 49°09' W 123°02'0 0.0
2016-Jun-18 01:32N 49°09' W 123°02'0 0.0
2016-Jun-18 00:32N 49°09' W 123°02'0 0.0
2016-Jun-17 23:32N 49°09' W 123°02'0 0.0
2016-Jun-17 22:32N 49°09' W 123°02'0 0.0
2016-Jun-17 21:32N 49°09' W 123°02'0 0.0
2016-Jun-17 20:32N 49°09' W 123°02'0 0.0
2016-Jun-17 19:33N 49°09' W 123°02'0 0.0
2016-Jun-17 18:33N 49°09' W 123°02'0 0.1
2016-Jun-17 17:33N 49°09' W 123°02'5 5.0
2016-Jun-17 16:34N 49°07' W 123°09'5 5.1
2016-Jun-17 15:34N 49°07' W 123°17'7 6.5
2016-Jun-17 14:33N 49°00' W 123°20'9 8.7
2016-Jun-17 13:34N 48°52' W 123°19'6 6.3
2016-Jun-17 12:33N 48°46' W 123°22'5 4.4
2016-Jun-17 11:28N 48°41' W 123°24'3 1.8
2016-Jun-17 09:33N 48°45' W 123°23'8 8.2
2016-Jun-17 08:33N 48°52' W 123°18'9 9.4
2016-Jun-17 07:33N 49°02' W 123°20'8 8.1
2016-Jun-17 06:33N 49°07' W 123°11'6 5.7
2016-Jun-17 05:32N 49°09' W 123°02'0 0.0
2016-Jun-17 04:29N 49°09' W 123°02'0 0.0
2016-Jun-17 03:32N 49°09' W 123°02'0 0.0
2016-Jun-17 02:29N 49°09' W 123°02'0 0.0
2016-Jun-17 01:32N 49°09' W 123°02'0 0.0
2016-Jun-17 00:32N 49°09' W 123°02'0 0.0
2016-Jun-16 23:32N 49°09' W 123°02'0 0.0
2016-Jun-16 22:32N 49°09' W 123°02'0 0.0
2016-Jun-16 21:29N 49°09' W 123°02'0 0.0
2016-Jun-16 20:32N 49°09' W 123°02'0 0.0
2016-Jun-16 19:29N 49°09' W 123°02'0 0.0
2016-Jun-16 18:32N 49°09' W 123°02'0 0.0
2016-Jun-16 17:32N 49°09' W 123°02'4 4.5
2016-Jun-16 16:34N 49°06' W 123°08'5 5.4
2016-Jun-16 15:34N 49°07' W 123°16'6 6.4
2016-Jun-16 14:34N 49°01' W 123°20'9 8.8
2016-Jun-16 13:34N 48°52' W 123°18'7 6.7
2016-Jun-16 12:33N 48°46' W 123°22'5 4.1
2016-Jun-16 11:18N 48°41' W 123°24'0 0.0
2016-Jun-16 10:30N 48°41' W 123°24'6 6.0
2016-Jun-16 09:34N 48°47' W 123°21'8 8.3
2016-Jun-16 08:33N 48°55' W 123°18'10 9.6
2016-Jun-16 07:33N 49°04' W 123°22'10 9.5
2016-Jun-16 06:33N 49°06' W 123°08'5 4.4
2016-Jun-16 05:32N 49°09' W 123°02'0 0.0
2016-Jun-16 04:32N 49°09' W 123°02'0 0.0
2016-Jun-16 03:32N 49°09' W 123°02'0 0.0
2016-Jun-16 02:32N 49°09' W 123°02'0 0.0
2016-Jun-16 01:32N 49°09' W 123°02'0 0.0
2016-Jun-16 00:32N 49°09' W 123°02'0 0.0
2016-Jun-15 23:32N 49°09' W 123°02'0 0.0
2016-Jun-15 22:32N 49°09' W 123°02'0 0.0
2016-Jun-15 21:32N 49°09' W 123°02'0 0.0
2016-Jun-15 20:32N 49°09' W 123°02'0 0.0
2016-Jun-15 19:32N 49°09' W 123°02'0 0.0
2016-Jun-15 18:32N 49°09' W 123°02'0 0.0
2016-Jun-15 17:32N 49°09' W 123°02'4 3.7
2016-Jun-15 16:34N 49°07' W 123°07'6 6.0
2016-Jun-15 15:34N 49°07' W 123°16'6 6.2
2016-Jun-15 14:34N 49°02' W 123°20'9 9.3
2016-Jun-15 13:34N 48°52' W 123°18'7 6.9
2016-Jun-15 12:34N 48°46' W 123°22'5 3.9
2016-Jun-15 11:18N 48°41' W 123°24'0 0.0
2016-Jun-15 10:33N 48°41' W 123°24'4 3.8
2016-Jun-15 09:33N 48°45' W 123°23'9 8.7
2016-Jun-15 08:33N 48°53' W 123°18'10 9.7
2016-Jun-15 07:34N 49°03' W 123°20'8 8.1
2016-Jun-15 06:34N 49°07' W 123°10'  
Track history (hours):
 
Tides and Currents Weather Stations Pressure Air Temp Water Temp Dewpoint Dewpoint Depression Visibility Wind Speed Wind Dir Waves Ship Positions

Arctic Taglu

Last reported at 2016-Jun-25 06:33 UTC. Time now 2016-Jun-25 07:03 UTC.
Position N 49°07' W 123°08'.

Length 33 m; draft 6 m.

Type: Tug. MMSI: 316003483.

Date/timePositionNaut miles runAvg speedWind from/ knotsBaromVisibWave heightAir tempDewpointWater temp
2016-Jun-25 06:33N 49°07' W 123°08'4 4.3
2016-Jun-25 05:33N 49°09' W 123°02'0 0.0
2016-Jun-25 04:33N 49°09' W 123°02'0 0.0
2016-Jun-25 03:33N 49°09' W 123°02'0 0.0
2016-Jun-25 02:33N 49°09' W 123°02'0 0.0
2016-Jun-25 01:33N 49°09' W 123°02'0 0.0
2016-Jun-25 00:33N 49°09' W 123°02'0 0.0
2016-Jun-24 23:33N 49°09' W 123°02'0 0.0
2016-Jun-24 22:33N 49°09' W 123°02'0 0.0
2016-Jun-24 21:33N 49°09' W 123°02'0 0.0
2016-Jun-24 20:33N 49°09' W 123°02'0 0.0
2016-Jun-24 19:33N 49°09' W 123°02'0 0.0
2016-Jun-24 18:33N 49°09' W 123°02'0 0.5
2016-Jun-24 17:33N 49°08' W 123°03'2 1.5
2016-Jun-24 16:33N 49°07' W 123°04'6 5.6
2016-Jun-24 15:33N 49°08' W 123°13'8 7.5
2016-Jun-24 14:33N 49°02' W 123°20'1010.1
2016-Jun-24 13:33N 48°52' W 123°18'9 8.7
2016-Jun-24 12:31N 48°44' W 123°25'2 2.5
2016-Jun-24 11:33N 48°41' W 123°24'0 0.0
2016-Jun-24 10:33N 48°41' W 123°24'4 4.2
2016-Jun-24 09:33N 48°45' W 123°21'8 7.7
2016-Jun-24 08:33N 48°52' W 123°18'1010.4
2016-Jun-24 07:33N 49°03' W 123°20'8 7.9
2016-Jun-24 06:33N 49°07' W 123°09'5 2.4
2016-Jun-24 04:33N 49°09' W 123°02'0 0.0
2016-Jun-24 03:33N 49°09' W 123°02'0 0.0
2016-Jun-24 02:33N 49°09' W 123°02'0 0.0
2016-Jun-24 01:33N 49°09' W 123°02'0 0.0
2016-Jun-24 00:33N 49°09' W 123°02'0 0.0
2016-Jun-23 23:33N 49°09' W 123°02'0 0.0
2016-Jun-23 22:33N 49°09' W 123°02'0 0.0
2016-Jun-23 21:33N 49°09' W 123°02'0 0.0
2016-Jun-23 20:33N 49°09' W 123°02'0 0.0
2016-Jun-23 19:33N 49°09' W 123°02'0 0.0
2016-Jun-23 18:33N 49°09' W 123°02'0 0.0
2016-Jun-23 17:33N 49°09' W 123°02'1 0.8
2016-Jun-23 16:33N 49°08' W 123°03'5 5.1
2016-Jun-23 15:33N 49°07' W 123°11'7 6.7
2016-Jun-23 14:33N 49°04' W 123°20'1010.4
2016-Jun-23 13:33N 48°54' W 123°18'9 8.5
2016-Jun-23 12:32N 48°45' W 123°22'4 2.2
2016-Jun-23 10:33N 48°41' W 123°24'3 3.0
2016-Jun-23 09:33N 48°44' W 123°23'8 7.9
2016-Jun-23 08:33N 48°51' W 123°19'10 9.9
2016-Jun-23 07:33N 49°01' W 123°20'14 7.0
2016-Jun-23 05:33N 49°09' W 123°02'1 0.9
2016-Jun-23 04:33N 49°08' W 123°03'9 9.1
2016-Jun-23 03:33N 49°07' W 123°17'9 8.9
2016-Jun-23 02:33N 48°58' W 123°19'8 8.1
2016-Jun-23 01:31N 48°49' W 123°21'8 8.7
2016-Jun-23 00:33N 48°41' W 123°24'0 0.1
2016-Jun-22 23:33N 48°41' W 123°24'4 3.9
2016-Jun-22 22:33N 48°44' W 123°21'7 7.1
2016-Jun-22 21:33N 48°52' W 123°19'8 8.4
2016-Jun-22 20:33N 48°60' W 123°20'9 9.2
2016-Jun-22 19:33N 49°07' W 123°12'7 6.6
2016-Jun-22 18:33N 49°09' W 123°02'0 0.0
2016-Jun-22 17:33N 49°09' W 123°02'2 1.7
2016-Jun-22 16:33N 49°08' W 123°04'6 5.9
2016-Jun-22 15:33N 49°08' W 123°13'7 7.4
2016-Jun-22 14:33N 49°02' W 123°20'10 9.6
2016-Jun-22 13:33N 48°52' W 123°18'8 8.0
2016-Jun-22 12:33N 48°45' W 123°23'4 3.7
2016-Jun-22 11:33N 48°41' W 123°24'0 0.0
2016-Jun-22 10:31N 48°41' W 123°24'6 5.7
2016-Jun-22 09:33N 48°46' W 123°21'9 8.5
2016-Jun-22 08:33N 48°55' W 123°18'1010.0
2016-Jun-22 07:33N 49°04' W 123°21'7 7.4
2016-Jun-22 06:34N 49°07' W 123°10'6 5.5
2016-Jun-22 05:33N 49°09' W 123°02'0 0.0
2016-Jun-22 04:33N 49°09' W 123°02'0 0.0
2016-Jun-22 03:33N 49°09' W 123°02'0 0.0
2016-Jun-22 02:33N 49°09' W 123°02'0 0.0
2016-Jun-22 01:33N 49°09' W 123°02'0 0.0
2016-Jun-22 00:33N 49°09' W 123°02'0 0.0
2016-Jun-21 23:33N 49°09' W 123°02'0 0.0
2016-Jun-21 22:33N 49°09' W 123°02'0 0.0
2016-Jun-21 21:33N 49°09' W 123°02'0 0.0
2016-Jun-21 20:33N 49°09' W 123°02'0 0.0
2016-Jun-21 19:33N 49°09' W 123°02'0 0.0
2016-Jun-21 18:33N 49°09' W 123°02'0 0.0
2016-Jun-21 17:33N 49°09' W 123°02'3 3.5
2016-Jun-21 16:34N 49°07' W 123°06'6 5.9
2016-Jun-21 15:34N 49°07' W 123°15'7 6.8
2016-Jun-21 14:34N 49°01' W 123°19'9 9.0
2016-Jun-21 13:34N 48°52' W 123°19'7 7.2
2016-Jun-21 12:33N 48°45' W 123°22'4 2.9
2016-Jun-21 11:10N 48°41' W 123°24'0 0.0
2016-Jun-21 10:22N 48°41' W 123°24'5 5.7
2016-Jun-21 09:33N 48°45' W 123°21'8 8.2
2016-Jun-21 08:33N 48°53' W 123°18'10 9.9
2016-Jun-21 07:33N 49°03' W 123°20'9 8.8
2016-Jun-21 06:33N 49°07' W 123°07'4 1.8
2016-Jun-21 04:32N 49°08' W 123°03'0 0.0
2016-Jun-21 03:32N 49°08' W 123°03'0 0.0
2016-Jun-21 02:32N 49°08' W 123°03'  
2016-Jun-18 20:25N 49°08' W 123°03'0 0.1
2016-Jun-18 19:33N 49°08' W 123°03'0 0.4
2016-Jun-18 18:32N 49°09' W 123°02'5 5.0
2016-Jun-18 17:34N 49°07' W 123°09'5 5.2
2016-Jun-18 16:33N 49°07' W 123°17'6 6.2
2016-Jun-18 15:33N 49°01' W 123°20'8 8.1
2016-Jun-18 14:33N 48°53' W 123°18'6 6.2
2016-Jun-18 13:33N 48°47' W 123°21'6 2.7
2016-Jun-18 11:16N 48°41' W 123°24'3 2.0
2016-Jun-18 09:33N 48°45' W 123°23'8 8.1
2016-Jun-18 08:33N 48°52' W 123°18'9 9.3
2016-Jun-18 07:33N 49°01' W 123°20'8 8.1
2016-Jun-18 06:33N 49°07' W 123°11'6 5.7
2016-Jun-18 05:32N 49°09' W 123°02'0 0.0
2016-Jun-18 04:29N 49°09' W 123°02'0 0.0
2016-Jun-18 03:32N 49°09' W 123°02'0 0.0
2016-Jun-18 02:32N 49°09' W 123°02'0 0.0
2016-Jun-18 01:32N 49°09' W 123°02'0 0.0
2016-Jun-18 00:32N 49°09' W 123°02'0 0.0
2016-Jun-17 23:32N 49°09' W 123°02'0 0.0
2016-Jun-17 22:32N 49°09' W 123°02'0 0.0
2016-Jun-17 21:32N 49°09' W 123°02'0 0.0
2016-Jun-17 20:32N 49°09' W 123°02'0 0.0
2016-Jun-17 19:33N 49°09' W 123°02'0 0.0
2016-Jun-17 18:33N 49°09' W 123°02'0 0.1
2016-Jun-17 17:33N 49°09' W 123°02'5 5.0
2016-Jun-17 16:34N 49°07' W 123°09'5 5.1
2016-Jun-17 15:34N 49°07' W 123°17'7 6.5
2016-Jun-17 14:33N 49°00' W 123°20'9 8.7
2016-Jun-17 13:34N 48°52' W 123°19'6 6.3
2016-Jun-17 12:33N 48°46' W 123°22'5 4.4
2016-Jun-17 11:28N 48°41' W 123°24'3 1.8
2016-Jun-17 09:33N 48°45' W 123°23'8 8.2
2016-Jun-17 08:33N 48°52' W 123°18'9 9.4
2016-Jun-17 07:33N 49°02' W 123°20'8 8.1
2016-Jun-17 06:33N 49°07' W 123°11'6 5.7
2016-Jun-17 05:32N 49°09' W 123°02'0 0.0
2016-Jun-17 04:29N 49°09' W 123°02'0 0.0
2016-Jun-17 03:32N 49°09' W 123°02'0 0.0
2016-Jun-17 02:29N 49°09' W 123°02'0 0.0
2016-Jun-17 01:32N 49°09' W 123°02'0 0.0
2016-Jun-17 00:32N 49°09' W 123°02'0 0.0
2016-Jun-16 23:32N 49°09' W 123°02'0 0.0
2016-Jun-16 22:32N 49°09' W 123°02'0 0.0
2016-Jun-16 21:29N 49°09' W 123°02'0 0.0
2016-Jun-16 20:32N 49°09' W 123°02'0 0.0
2016-Jun-16 19:29N 49°09' W 123°02'0 0.0
2016-Jun-16 18:32N 49°09' W 123°02'0 0.0
2016-Jun-16 17:32N 49°09' W 123°02'4 4.5
2016-Jun-16 16:34N 49°06' W 123°08'5 5.4
2016-Jun-16 15:34N 49°07' W 123°16'6 6.4
2016-Jun-16 14:34N 49°01' W 123°20'9 8.8
2016-Jun-16 13:34N 48°52' W 123°18'7 6.7
2016-Jun-16 12:33N 48°46' W 123°22'5 4.1
2016-Jun-16 11:18N 48°41' W 123°24'0 0.0
2016-Jun-16 10:30N 48°41' W 123°24'6 6.0
2016-Jun-16 09:34N 48°47' W 123°21'8 8.3
2016-Jun-16 08:33N 48°55' W 123°18'10 9.6
2016-Jun-16 07:33N 49°04' W 123°22'10 9.5
2016-Jun-16 06:33N 49°06' W 123°08'5 4.4
2016-Jun-16 05:32N 49°09' W 123°02'0 0.0
2016-Jun-16 04:32N 49°09' W 123°02'0 0.0
2016-Jun-16 03:32N 49°09' W 123°02'0 0.0
2016-Jun-16 02:32N 49°09' W 123°02'0 0.0
2016-Jun-16 01:32N 49°09' W 123°02'0 0.0
2016-Jun-16 00:32N 49°09' W 123°02'0 0.0
2016-Jun-15 23:32N 49°09' W 123°02'0 0.0
2016-Jun-15 22:32N 49°09' W 123°02'0 0.0
2016-Jun-15 21:32N 49°09' W 123°02'0 0.0
2016-Jun-15 20:32N 49°09' W 123°02'0 0.0
2016-Jun-15 19:32N 49°09' W 123°02'0 0.0
2016-Jun-15 18:32N 49°09' W 123°02'0 0.0
2016-Jun-15 17:32N 49°09' W 123°02'4 3.7
2016-Jun-15 16:34N 49°07' W 123°07'6 6.0
2016-Jun-15 15:34N 49°07' W 123°16'6 6.2
2016-Jun-15 14:34N 49°02' W 123°20'9 9.3
2016-Jun-15 13:34N 48°52' W 123°18'7 6.9
2016-Jun-15 12:34N 48°46' W 123°22'5 3.9
2016-Jun-15 11:18N 48°41' W 123°24'0 0.0
2016-Jun-15 10:33N 48°41' W 123°24'4 3.8
2016-Jun-15 09:33N 48°45' W 123°23'9 8.7
2016-Jun-15 08:33N 48°53' W 123°18'10 9.7
2016-Jun-15 07:34N 49°03' W 123°20'8 8.1
2016-Jun-15 06:34N 49°07' W 123°10'  

Dump ship's entire track history